^^

Flughafenwetter in der weiteren Umgebung

 

EDVE - Braunschweig, Germany
Entfernung von Station: N 5 km
Aktualisierung: 23.10.2017 16:50
leichter Regen, Bedeckt
leichter Regen, Bedeckt
 Wind von SSW
Wind: SSW 13 km/h
Temperatur: 10°C
Windkühle: 8°C
Taupunkt: 10°C
Luftfeuchte: 100%
Luftdruck: 1016 hPa
Zusammenfassung: leichter Regen
Wolken: Bedeckt
Sicht: 3 km
Wolken Details: stark bewölkt 213 m
Bedeckt 457 m
2017/10/23 14:50 EDVE 231450Z 21007KT 180V240 3200 -DZ BKN007 OVC015 10/10 Q1016
ETHC - Celle (ger-Army), Germany
Entfernung von Station: NW 51 km
Aktualisierung: 23.10.2017 16:20
leichter Regen, Nebel, stark bewölkt
leichter Regen, Nebel, stark bewölkt
 Wind von SSW
Wind: SSW 19 km/h
Temperatur: 10°C
Windkühle: 7°C
Taupunkt: 9°C
Luftfeuchte: 94%
Luftdruck: 1015 hPa
Zusammenfassung: leichter Regen, Nebel
Wolken: stark bewölkt
Sicht: 4 km
Wolken Details: stark bewölkt 274 m
stark bewölkt 610 m
2017/10/23 14:20 ETHC 231420Z 21010KT 3500 -RA BR BKN009 BKN020 10/09 Q1015 YLO GRN TEMPO YLO
 
EDDV - Hannover, Germany
Entfernung von Station: WNW 62 km
Aktualisierung: 23.10.2017 16:50
leichter Regen, Nieselregen, stark bewölkt
leichter Regen, Nieselregen, stark bewölkt
 Wind von WSW
Wind: WSW 20 km/h
Temperatur: 11°C
Taupunkt: 9°C
Luftfeuchte: 88%
Luftdruck: 1015 hPa
Zusammenfassung: leichter Regen, Nieselregen
Wolken: stark bewölkt
Sicht: 9 km
Wolken Details: stark bewölkt 244 m
2017/10/23 14:50 EDDV 231450Z 24011KT 210V270 9000 -RADZ BKN008 11/09 Q1015 RERA NOSIG
ETHS - Fassberg (ger-Af, Germany
Entfernung von Station: NNW 75 km
Aktualisierung: 23.10.2017 16:20
leichter Regen, Nieselregen, Nebel, stark bewölkt
leichter Regen, Nieselregen, Nebel, stark bewölkt
 Wind von SW
Wind: SW 15 km/h
Temperatur: 10°C
Windkühle: 8°C
Taupunkt: 9°C
Luftfeuchte: 94%
Luftdruck: 1014 hPa
Zusammenfassung: leichter Regen, Nieselregen, Nebel
Wolken: stark bewölkt
Sicht: 3 km
Wolken Details: stark bewölkt 152 m
2017/10/23 14:20 ETHS 231420Z 22008KT 3000 -RADZ BR BKN005 10/09 Q1014 BLACKYLO GRN TEMPO YLO
 
EDBC - Cochstedt Arpt, Germany
Entfernung von Station: SO 76 km
Aktualisierung: 24.07.2017 17:20
nicht aktuell
leichter Regen, stark bewölkt
leichter Regen, stark bewölkt
 Wind von N
Wind: N 11 km/h
Temperatur: 16°C
Taupunkt: 16°C
Luftfeuchte: 100%
Luftdruck: 1007 hPa
Zusammenfassung: Nieselregen
Wolken: stark bewölkt
Sicht: 10 km
Wolken Details: wolkig 914 m
stark bewölkt 1981 m
2017/07/24 15:20 EDBC 241520Z 35006KT 9999 -RA SCT030 BKN065 16/16 Q1007
ETNW - Wunstorf (ger-Af, Germany
Entfernung von Station: WNW 79 km
Aktualisierung: 23.10.2017 16:46
leichter Regen, Regen, Nebel, stark bewölkt
leichter Regen, Regen, Nebel, stark bewölkt
 Wind von WSW
Wind: WSW 24 km/h
Temperatur: 11°C
Taupunkt: 10°C
Luftfeuchte: 94%
Luftdruck: 1015 hPa
Zusammenfassung: leichter Regen, Regen, Nebel
Wolken: stark bewölkt
Sicht: 4 km
Wolken Details: stark bewölkt 183 m
2017/10/23 14:46 ETNW 231446Z 25013KT 4000 -DZRA BR BKN006 11/10 Q1015 YLO WHT TEMPO YLO
 
ETHB - Buckeburg(Ger-Ar, Germany
Entfernung von Station: W 101 km
Aktualisierung: 23.10.2017 16:28
Drizzle rain, Nebel, stark bewölkt
Drizzle rain, Nebel, stark bewölkt
 Wind von W
Wind: W 26 km/h
Temperatur: 11°C
Taupunkt: 10°C
Luftfeuchte: 94%
Luftdruck: 1015 hPa
Zusammenfassung: Drizzle rain, Nebel
Wolken: stark bewölkt
Sicht: 4 km
Wolken Details: wolkig 244 m
stark bewölkt 366 m
2017/10/23 14:28 ETHB 231428Z 26014KT 3800 DZRA BR SCT008 BKN012 11/10 Q1015 GRN WHT TEMPO GRN
ETGQ - Rotenburg, Germany
Entfernung von Station: NW 125 km
Aktualisierung: 10.10.2016 06:20
nicht aktuell

 Wind von veränderlich
Wind: veränderlich 0 km/h
Temperatur: 4°C
Taupunkt: 3°C
Luftfeuchte: 93%
Luftdruck: 1025 hPa
2016/10/10 04:20 ETGQ 100420Z AUTO /////KT //// // ////// 04/03 Q1025 ///
 
EDVK - Kassel/Calden, Germany
Entfernung von Station: SW 128 km
Aktualisierung: 23.10.2017 16:50
leichter Regen, Bedeckt
leichter Regen, Bedeckt
 Wind von WSW
Wind: WSW 19 km/h
Temperatur: 11°C
Taupunkt: 7°C
Luftfeuchte: 77%
Luftdruck: 1018 hPa
Zusammenfassung: Nieselregen
Wolken: Bedeckt
Sicht: 10 km
Wolken Details: wolkig 640 m
Bedeckt 945 m
2017/10/23 14:50 EDVK 231450Z 24010KT 9999 -RA SCT021 OVC031 11/07 Q1018
EDDW - Bremen, Germany
Entfernung von Station: NW 145 km
Aktualisierung: 23.10.2017 16:50
leichter Regen, stark bewölkt
leichter Regen, stark bewölkt
 Wind von WNW
Wind: WNW 28 km/h
Temperatur: 13°C
Taupunkt: 11°C
Luftfeuchte: 88%
Luftdruck: 1014 hPa
Zusammenfassung: Nieselregen
Wolken: stark bewölkt
Sicht: 10 km
Wolken Details: wolkig 488 m
stark bewölkt 914 m
2017/10/23 14:50 EDDW 231450Z 30015KT 9999 -RA SCT016 BKN030 13/11 Q1014 NOSIG
 
EDDE - Erfurt, Germany
Entfernung von Station: SSO 148 km
Aktualisierung: 23.10.2017 16:50
stark bewölkt
stark bewölkt
 Wind von W
Wind: W 22 km/h
Temperatur: 10°C
Windkühle: 7°C
Taupunkt: 6°C
Luftfeuchte: 76%
Luftdruck: 1018 hPa
Wolken: stark bewölkt
Sicht: 10 km
Wolken Details: teils wolkig 701 m
stark bewölkt 1524 m
2017/10/23 14:50 EDDE 231450Z 26012KT 9999 FEW023 BKN050 10/06 Q1018 NOSIG
EDLP - Paderborn, Germany
Entfernung von Station: WSW 135 km
Aktualisierung: 23.10.2017 16:50
leichter Regen, stark bewölkt
leichter Regen, stark bewölkt
 Wind von WSW
Wind: WSW 20 km/h
Temperatur: 11°C
Taupunkt: 7°C
Luftfeuchte: 77%
Luftdruck: 1017 hPa
Zusammenfassung: Nieselregen
Wolken: stark bewölkt
Sicht: 10 km
Wolken Details: stark bewölkt 671 m
2017/10/23 14:50 EDLP 231450Z 24011KT 9999 -RA BKN022 11/07 Q1017
 
EDHI - Hamburg/Finkenwe, Germany
Entfernung von Station: NNW 148 km
Aktualisierung: 23.10.2017 16:50
stark bewölkt
stark bewölkt
 Wind von veränderlich
Wind: veränderlich 6 km/h
Temperatur: 11°C
Taupunkt: 10°C
Luftfeuchte: 94%
Luftdruck: 1014 hPa
Wolken: stark bewölkt
Sicht: 6 km
Wolken Details: stark bewölkt 244 m
2017/10/23 14:50 EDHI 231450Z VRB03KT 6000 BKN008 11/10 Q1014
EDDP - Leipzig/Schkeudi, Germany
Entfernung von Station: SO 149 km
Aktualisierung: 23.10.2017 16:50
stark bewölkt
stark bewölkt
 Wind von W
Wind: W 15 km/h
Temperatur: 11°C
Taupunkt: 8°C
Luftfeuchte: 82%
Luftdruck: 1017 hPa
Wolken: stark bewölkt
Sicht: 10 km
Wolken Details: teils wolkig 610 m
stark bewölkt 1981 m
2017/10/23 14:50 EDDP 231450Z 27008KT 9999 FEW020 BKN065 11/08 Q1017 NOSIG
 
EDDP - Leipzig/Halle, Germany
Entfernung von Station: SO 149 km
Aktualisierung: 23.10.2017 16:50
stark bewölkt
stark bewölkt
 Wind von W
Wind: W 15 km/h
Temperatur: 11°C
Taupunkt: 8°C
Luftfeuchte: 82%
Luftdruck: 1017 hPa
Wolken: stark bewölkt
Sicht: 10 km
Wolken Details: teils wolkig 610 m
stark bewölkt 1981 m
2017/10/23 14:50 EDDP 231450Z 27008KT 9999 FEW020 BKN065 11/08 Q1017 NOSIG
EDOP - Schwerin-Parchim, Germany
Entfernung von Station: NNO 153 km
Aktualisierung: 23.10.2017 16:50
leichter Regen, Nebel, Bedeckt
leichter Regen, Nebel, Bedeckt
 Wind von SSW
Wind: SSW 9 km/h
Temperatur: 11°C
Taupunkt: 10°C
Luftfeuchte: 94%
Luftdruck: 1015 hPa
Zusammenfassung: leichter Regen, Nebel
Wolken: Bedeckt
Sicht: 3 km
Wolken Details: Bedeckt 244 m
2017/10/23 14:50 EDOP 231450Z 20005KT 160V230 3400 -RA BR OVC008 11/10 Q1015
 
ETND - Diepholz (ger-Af, Germany
Entfernung von Station: WNW 153 km
Aktualisierung: 23.10.2017 15:20
nicht aktuell
leichter Regen, Nieselregen, Nebel, stark bewölkt
leichter Regen, Nieselregen, Nebel, stark bewölkt
 Wind von W
Wind: W 28 km/h, Windböen: 46 km/h
Temperatur: 11°C
Taupunkt: 11°C
Luftfeuchte: 100%
Luftdruck: 1014 hPa
Zusammenfassung: leichter Regen, Nieselregen, Nebel
Wolken: stark bewölkt
Sicht: 4 km
Wolken Details: teils wolkig 183 m
stark bewölkt 305 m
stark bewölkt 396 m
2017/10/23 13:20 ETND 231320Z 26015G25KT 3700 -RADZ BR FEW006 BKN010 BKN013 11/11 Q1014 GRN
EDDH - Hamburg, Germany
Entfernung von Station: NNW 154 km
Aktualisierung: 23.10.2017 16:50
Nebel, stark bewölkt
Nebel, stark bewölkt
 Wind von OSO
Wind: OSO 9 km/h
Temperatur: 11°C
Taupunkt: 10°C
Luftfeuchte: 94%
Luftdruck: 1014 hPa
Zusammenfassung: Nebel
Wolken: stark bewölkt
Sicht: 5 km
Wolken Details: teils wolkig 122 m
stark bewölkt 183 m
stark bewölkt 396 m
2017/10/23 14:50 EDDH 231450Z 12005KT 070V180 5000 BR FEW004 BKN006 BKN013 11/10 Q1014 NOSIG
 
ETHF - Fritzlar (ger-Ar, Germany
Entfernung von Station: SW 156 km
Aktualisierung: 23.10.2017 16:20
stark bewölkt
stark bewölkt
 Wind von WSW
Wind: WSW 15 km/h
Temperatur: 12°C
Taupunkt: 6°C
Luftfeuchte: 67%
Luftdruck: 1018 hPa
Wolken: stark bewölkt
Sicht: 10 km
Wolken Details: teils wolkig 610 m
stark bewölkt 1219 m
2017/10/23 14:20 ETHF 231420Z 24008KT 9999 FEW020 BKN040 12/06 Q1018 BLU BLU TEMPO WHT
EDHL - Luebeck, Germany
Entfernung von Station: N 178 km
Aktualisierung: 23.10.2017 16:50
stark bewölkt
stark bewölkt
 Wind von SSO
Wind: SSO 7 km/h
Temperatur: 11°C
Taupunkt: 11°C
Luftfeuchte: 100%
Luftdruck: 1015 hPa
Wolken: stark bewölkt
Sicht: 10 km
Wolken Details: stark bewölkt 427 m
2017/10/23 14:50 EDHL 231450Z 16004KT 9999 BKN014 11/11 Q1015
 
ETSH - Holzdorf, Germany
Entfernung von Station: OSO 188 km
Aktualisierung: 23.10.2017 16:20
stark bewölkt
stark bewölkt
 Wind von W
Wind: W 7 km/h
Temperatur: 11°C
Taupunkt: 10°C
Luftfeuchte: 94%
Luftdruck: 1017 hPa
Wolken: stark bewölkt
Sicht: 10 km
Wolken Details: teils wolkig 366 m
wolkig 762 m
stark bewölkt 1524 m
2017/10/23 14:20 ETSH 231420Z 28004KT 9999 FEW012 SCT025 BKN050 11/10 Q1017 BLU BLU TEMPO GRN
EDDT - Berlin-Tegel, Germany
Entfernung von Station: ONO 190 km
Aktualisierung: 23.10.2017 16:50
leichter Regen, stark bewölkt
leichter Regen, stark bewölkt
 Wind von W
Wind: W 7 km/h
Temperatur: 12°C
Taupunkt: 10°C
Luftfeuchte: 88%
Luftdruck: 1016 hPa
Zusammenfassung: Nieselregen
Wolken: stark bewölkt
Sicht: 10 km
Wolken Details: wolkig 305 m
stark bewölkt 1067 m
2017/10/23 14:50 EDDT 231450Z 28004KT 220V350 9999 -RA SCT010 BKN035 12/10 Q1016 TEMPO BKN014
 
ETNL - Rostock-Laage, Germany
Entfernung von Station: NO 217 km
Aktualisierung: 23.10.2017 16:20
leichter Regen, stark bewölkt
leichter Regen, stark bewölkt
 Wind von O
Wind: O 7 km/h
Temperatur: 11°C
Taupunkt: 10°C
Luftfeuchte: 94%
Luftdruck: 1015 hPa
Zusammenfassung: Nieselregen
Wolken: stark bewölkt
Sicht: 9 km
Wolken Details: stark bewölkt 152 m
stark bewölkt 244 m
2017/10/23 14:20 ETNL 231420Z 09004KT 9000 -RA BKN005 BKN008 11/10 Q1015 YLO YLO TEMPO GRN
EDLW - Dortmund, Germany
Entfernung von Station: WSW 217 km
Aktualisierung: 23.10.2017 16:50
stark bewölkt
stark bewölkt
 Wind von WSW
Wind: WSW 17 km/h
Temperatur: 12°C
Taupunkt: 7°C
Luftfeuchte: 72%
Luftdruck: 1018 hPa
Wolken: stark bewölkt
Sicht: 10 km
Wolken Details: stark bewölkt 701 m
2017/10/23 14:50 EDLW 231450Z 24009KT 9999 BKN023 12/07 Q1018
 
EDDK - Koeln/Bonn, Germany
Entfernung von Station: WSW 282 km
Aktualisierung: 23.10.2017 16:50
stark bewölkt
stark bewölkt
 Wind von W
Wind: W 24 km/h
Temperatur: 13°C
Taupunkt: 7°C
Luftfeuchte: 67%
Luftdruck: 1019 hPa
Wolken: stark bewölkt
Sicht: 10 km
Wolken Details: teils wolkig 914 m
stark bewölkt 1676 m
2017/10/23 14:50 EDDK 231450Z 27013KT 9999 FEW030 BKN055 13/07 Q1019 NOSIG
EDDL - Düsseldorf, Germany
Entfernung von Station: WSW 282 km
Aktualisierung: 23.10.2017 16:50
stark bewölkt
stark bewölkt
 Wind von WSW
Wind: WSW 19 km/h
Temperatur: 14°C
Taupunkt: 9°C
Luftfeuchte: 72%
Luftdruck: 1019 hPa
Wolken: stark bewölkt
Sicht: 10 km
Wolken Details: teils wolkig 671 m
wolkig 1280 m
stark bewölkt 1524 m
2017/10/23 14:50 EDDL 231450Z 25010KT 9999 FEW022 SCT042 BKN050 14/09 Q1019 NOSIG
 
EDDF - Frankfurt Main, Germany
Entfernung von Station: SSW 285 km
Aktualisierung: 23.10.2017 16:50
stark bewölkt
stark bewölkt
 Wind von WSW
Wind: WSW 13 km/h
Temperatur: 13°C
Taupunkt: 6°C
Luftfeuchte: 63%
Luftdruck: 1020 hPa
Wolken: stark bewölkt
Sicht: 10 km
Wolken Details: teils wolkig 671 m
wolkig 1280 m
stark bewölkt 1829 m
2017/10/23 14:50 EDDF 231450Z 24007KT 9999 FEW022 SCT042 BKN060 13/06 Q1020 NOSIG
EDDS - Stuttgart, Germany
Entfernung von Station: SSW 413 km
Aktualisierung: 23.10.2017 16:50
stark bewölkt
stark bewölkt
 Wind von W
Wind: W 22 km/h
Temperatur: 11°C
Taupunkt: 5°C
Luftfeuchte: 67%
Luftdruck: 1022 hPa
Wolken: stark bewölkt
Sicht: 10 km
Wolken Details: teils wolkig 914 m
stark bewölkt 1768 m
2017/10/23 14:50 EDDS 231450Z 28012KT 9999 FEW030 BKN058 11/05 Q1022 NOSIG
 
EDDR - Saarbrücken, Germany
Entfernung von Station: SW 418 km
Aktualisierung: 23.10.2017 16:50
stark bewölkt
stark bewölkt
 Wind von WSW
Wind: WSW 13 km/h
Temperatur: 9°C
Windkühle: 7°C
Taupunkt: 8°C
Luftfeuchte: 94%
Luftdruck: 1022 hPa
Wolken: stark bewölkt
Sicht: 10 km
Wolken Details: teils wolkig 61 m
stark bewölkt 244 m
2017/10/23 14:50 EDDR 231450Z 24007KT 210V270 9999 FEW002 BKN008 09/08 Q1022 BECMG SCT008
EDDM - München, Germany
Entfernung von Station: SSO 445 km
Aktualisierung: 23.10.2017 16:50
stark bewölkt
stark bewölkt
 Wind von W
Wind: W 15 km/h
Temperatur: 9°C
Windkühle: 7°C
Taupunkt: 5°C
Luftfeuchte: 76%
Luftdruck: 1021 hPa
Wolken: stark bewölkt
Sicht: 10 km
Wolken Details: teils wolkig 732 m
wolkig 914 m
stark bewölkt 1981 m
2017/10/23 14:50 EDDM 231450Z 27008KT 9999 FEW024 SCT030 BKN065 09/05 Q1021 NOSIG
 
LOWI - Innsbruck, Austria
Entfernung von Station: WSW 566 km
Aktualisierung: 23.10.2017 16:50
leichter Regen, stark bewölkt
leichter Regen, stark bewölkt
 Wind von NO
Wind: NO 9 km/h
Temperatur: 7°C
Windkühle: 6°C
Taupunkt: 4°C
Luftfeuchte: 81%
Luftdruck: 1022 hPa
Zusammenfassung: Nieselregen
Wolken: stark bewölkt
Sicht: 10 km
Wolken Details: teils wolkig 244 m
stark bewölkt 762 m
2017/10/23 14:50 LOWI 231450Z 04005KT 9999 -RA FEW008 BKN025 07/04 Q1022 NOSIG
Besucherstatistik
Besucher gesamt: 872.176
Besucher heute: 770
Besucher gestern: 1.221
Besucher Ø : 1.026,59
gerade online: 12
max. online: 119
Seitenaufrufe heute: 1.484
Seitenaufrufe diese Seite: 3.624
Seitenaufrufe gesamt: 2.778.407
counter Statistiken